Aérodrome :
LOGIN :

S'inscrire | Disclaimer

   EN    FR    IT 

 










Légende :    VFR   VFR Marginal   IFR   IFR Intensif   IFR Très Intensif
Visi : 
Plafond : 
>= 8 km
>= 3000ft
5 à 8 km
1000 à 3000 ft
1500m à 5 km
500 à 1000 ft
800 à 1500m
200 à 500 ft
< 800m
< 200 ft
Symboles :   Orages  Brouillard  Fortes neiges  Fortes précipitations  Vent > 20 kt
SIGMETs :   Divers  Orages  Givrage  Turbulence  Onde Orograph.  Cendres Volcan.







- Altitude de l'aérodrome : 197 ft
- Code IATA : XOG
- Voir les cartes d'approche


LFMO - Orange

DERNIER METAR :
  • 202230Z AUTO 35008KT 320V020 9999 ///TCU 21/16 Q1015 BECMG NSC

METARs EXPIRÉS :
  • 202200Z AUTO 33008KT 9999 ///TCU 21/15 Q1014 BECMG NSC
  • 202130Z AUTO 32009KT 9999 ///CB 21/15 Q1014 BECMG NSC
  • 202100Z AUTO 33014KT 9999 ///TCU 20/15 Q1014 TEMPO 2000 TSRA BKN050 BKN070CB
  • 202030Z AUTO 30012KT 250V330 9999 FEW076/// BKN100/// OVC130/// ///CB 21/15 Q1014 TEMPO 2000 TSRA BECMG NSC
  • 202000Z AUTO 33010KT 9999 VCTS ///CB 23/14 Q1013 TEMPO 2000 TSRA

TAF TAF LFMO
Valide du 20 à 15h jusqu'au 21 à 15h UTC


201400Z 2015/2115 26005KT CAVOK
BECMG 2015/2016 34012KT
TEMPO 2016/2022 4000 SHRA BKN070TCU
PROB30
TEMPO 2016/2022 2000 TSRA BKN050 BKN070CB
TEMPO 2113/2115 4000 SHRA BKN060TCU
PROB30
TEMPO 2114/2115 2000 TSRA BKN060CB
Pas de NOTAMs connus pour ce terrain.
3 SIGMETs publiés pour la FIR Marseille (LFMM) :
 
Orages noyés dans la masse
LFMM SIGMET 7 VALID 202100/202300 LFPW
LFMM MARSEILLE FIR/UIR EMBD TS OBS WI N4400 E00245 - N4445 E00245 - N4515 E00315 - N4530 E00400 - N4345 E00415 - N4400 E00245 TOP FL360 MOV NE 15KT NC=
Annulation du SIGMET 5 
LFMM SIGMET 6 VALID 202105/202300 LFPW
LFMM MARSEILLE FIR/UIR CNL SIGMET 5 202100/202300=
SIGMET 5  ANNULÉ :
Turbulence forte
LFMM SIGMET 5 VALID 202100/202300 LFPW
LFMM MARSEILLE FIR/UIR SEV TURB OBS WI N4400 E00245 - N4445 E00245 - N4515 E00315 - N4530 E00400 - N4345 E00415 - N4400 E00245 SFC/FL360 MOV NE 15KT NC=



MET'MAP, la Météo Aéronautique d'un coup d'oeil ! - Copyright ORBIFLY Décembre 2007 - Disclaimer

ORBIFLY MET'MAP TEAM :

Programmation & Développement : Alexandra Zaïnal
Conception & Développement : Baudouin d'Aumeries
Co-Programmation & Développement : Marc-Olivier Méhu
Soutien technique & logistique : Manuel Goepfert

Contact : metmap@orbifly.com




SOURCES & CREDITS :

   NOAA